| time (UTC) | temp F | wind direction | speed MPH | gust MPH | rain 1hr in | rain 24hr in | rain mn in | humidity % | barometer mb |
| 20260509033714 | 54 | 269 | 0.0 | 1.0 | 0.05 | 0.08 | 0.08 | 99 | 1010.9 |
| 20260509033211 | 54 | 237 | 0.0 | 2.0 | 0.02 | 0.08 | 0.08 | 99 | 1011.0 |
| 20260509032708 | 54 | 134 | 0.0 | 1.0 | 0.02 | 0.07 | 0.07 | 99 | 1011.1 |
| 20260509032205 | 54 | 173 | 0.0 | 2.0 | 0.05 | 0.07 | 0.07 | 99 | 1011.0 |
| 20260509031702 | 54 | 315 | 0.0 | 2.0 | 0.02 | 0.07 | 0.07 | 99 | 1011.1 |
| 20260509031159 | 54 | 185 | 1.0 | 1.0 | 0.02 | 0.07 | 0.07 | 98 | 1010.9 |
| 20260509030658 | 54 | 230 | 0.0 | 1.0 | 0.02 | 0.06 | 0.06 | 98 | 1011.1 |
| 20260509030155 | 54 | 249 | 0.0 | 1.0 | 0.05 | 0.06 | 0.06 | 98 | 1011.1 |
| 20260509025650 | 54 | 123 | 1.0 | 2.0 | 0.02 | 0.06 | 0.06 | 98 | 1011.2 |
| 20260509025147 | 54 | 166 | 0.0 | 0.0 | 0.02 | 0.06 | 0.06 | 98 | 1011.1 |
| 20260509024642 | 54 | 279 | 0.0 | 2.0 | 0.02 | 0.06 | 0.06 | 98 | 1011.1 |
| 20260509024138 | 54 | 175 | 2.0 | 2.0 | 0.00 | 0.05 | 0.05 | 98 | 1011.3 |
| 20260509023636 | 54 | 256 | 0.0 | 2.0 | 0.02 | 0.05 | 0.05 | 98 | 1011.4 |
| 20260509023133 | 54 | 269 | 0.0 | 2.0 | 0.02 | 0.05 | 0.05 | 97 | 1011.2 |
| 20260509022629 | 54 | 153 | 1.0 | 2.0 | 0.05 | 0.05 | 0.05 | 97 | 1011.5 |
| 20260509022127 | 54 | 283 | 2.0 | 2.0 | 0.02 | 0.04 | 0.04 | 97 | 1011.5 |
| 20260509021624 | 54 | 194 | 0.0 | 2.0 | 0.02 | 0.04 | 0.04 | 97 | 1011.5 |
| 20260509021121 | 54 | 224 | 0.0 | 2.0 | 0.02 | 0.04 | 0.04 | 97 | 1011.5 |
| 20260509020619 | 54 | 191 | 0.0 | 2.0 | 0.05 | 0.04 | 0.04 | 97 | 1011.2 |
| 20260509020115 | 54 | 103 | 0.0 | 2.0 | 0.02 | 0.03 | 0.03 | 97 | 1011.6 |
| 20260509015615 | 54 | 282 | 0.0 | 2.0 | 0.02 | 0.03 | 0.03 | 97 | 1011.4 |
| 20260509015112 | 54 | 147 | 0.0 | 1.0 | 0.00 | 0.02 | 0.02 | 97 | 1011.4 |
| 20260509014608 | 54 | 212 | 0.0 | 0.0 | 0.02 | 0.02 | 0.02 | 97 | 1011.0 |
| 20260509014105 | 54 | 205 | 0.0 | 2.0 | 0.02 | 0.02 | 0.02 | 97 | 1010.9 |
| 20260509013602 | 54 | 329 | 1.0 | 1.0 | 0.00 | 0.02 | 0.02 | 96 | 1010.7 |
| 20260509013057 | 54 | 319 | 0.0 | 0.0 | 0.00 | 0.02 | 0.02 | 95 | 1010.7 |
| 20260509012554 | 54 | 141 | 0.0 | 1.0 | 0.00 | 0.02 | 0.02 | 94 | 1010.6 |
| 20260509012051 | 54 | 89 | 0.0 | 1.0 | 0.02 | 0.02 | 0.02 | 94 | 1010.4 |
| 20260509011549 | 54 | 117 | 2.0 | 2.0 | 0.00 | 0.02 | 0.02 | 94 | 1010.6 |
| 20260509011046 | 54 | 123 | 1.0 | 1.0 | 0.00 | 0.02 | 0.02 | 93 | 1010.6 |
| 20260509010544 | 54 | 66 | 0.0 | 0.0 | 0.00 | 0.02 | 0.02 | 93 | 1010.6 |
| 20260509010040 | 55 | 269 | 0.0 | 1.0 | 0.00 | 0.02 | 0.02 | 94 | 1010.7 |
| 20260509005538 | 55 | 230 | 0.0 | 1.0 | 0.00 | 0.02 | 0.02 | 92 | 1010.6 |
| 20260509005038 | 55 | 133 | 0.0 | 2.0 | 0.00 | 0.02 | 0.02 | 91 | 1010.5 |
| 20260509004535 | 55 | 119 | 0.0 | 2.0 | 0.00 | 0.02 | 0.02 | 90 | 1010.3 |
| 20260509004032 | 55 | 141 | 0.0 | 3.0 | 0.00 | 0.02 | 0.02 | 91 | 1010.4 |
| 20260509003530 | 55 | 55 | 0.0 | 1.0 | 0.00 | 0.02 | 0.02 | 91 | 1010.5 |
| 20260509003027 | 56 | 89 | 0.0 | 1.0 | 0.02 | 0.02 | 0.02 | 90 | 1010.5 |
| 20260509002525 | 56 | 143 | 0.0 | 2.0 | 0.02 | 0.02 | 0.02 | 91 | 1010.7 |
| 20260509002022 | 56 | 336 | 2.0 | 3.0 | 0.00 | 0.01 | 0.01 | 90 | 1010.5 |
| 20260509001519 | 56 | 273 | 0.0 | 3.0 | 0.02 | 0.01 | 0.01 | 83 | 1010.7 |
| 20260509001015 | 57 | 192 | 1.0 | 2.0 | 0.02 | 0.01 | 0.01 | 88 | 1010.6 |
| 20260509000514 | 57 | 142 | 0.0 | 0.0 | 0.00 | 0.01 | 0.01 | 87 | 1010.5 |
| 20260509000009 | 58 | 309 | 0.0 | 1.0 | 0.00 | 0.01 | 0.01 | 82 | 1010.7 |
| 20260508235507 | 58 | 222 | 2.0 | 5.0 | 0.00 | 0.01 | 0.01 | 75 | 1010.6 |
| 20260508235003 | 57 | 133 | 2.0 | 3.0 | 0.00 | 0.01 | 0.01 | 88 | 1010.7 |
| 20260508234500 | 57 | 344 | 0.0 | 1.0 | 0.00 | 0.01 | 0.01 | 88 | 1010.4 |
| 20260508233958 | 57 | 299 | 0.0 | 1.0 | 0.00 | 0.01 | 0.01 | 89 | 1010.3 |
| 20260508233457 | 57 | 25 | 0.0 | 1.0 | 0.00 | 0.01 | 0.01 | 86 | 1010.2 |
| 20260508232954 | 57 | 108 | 0.0 | 0.0 | 0.00 | 0.01 | 0.01 | 87 | 1010.1 |
| 20260508232451 | 57 | 142 | 0.0 | 0.0 | 0.00 | 0.01 | 0.01 | 89 | 1010.1 |
| 20260508231948 | 57 | 98 | 2.0 | 2.0 | 0.00 | 0.01 | 0.01 | 89 | 1009.9 |
| 20260508231445 | 57 | 80 | 1.0 | 1.0 | 0.00 | 0.01 | 0.01 | 88 | 1010.0 |
| 20260508230942 | 57 | 123 | 1.0 | 1.0 | 0.00 | 0.01 | 0.01 | 88 | 1010.0 |
| 20260508230438 | 57 | 129 | 0.0 | 1.0 | 0.00 | 0.01 | 0.01 | 88 | 1010.0 |
| 20260508225935 | 58 | 129 | 0.0 | 0.0 | 0.02 | 0.01 | 0.01 | 85 | 1010.2 |
| 20260508225432 | 58 | 294 | 1.0 | 1.0 | 0.02 | 0.01 | 0.01 | 85 | 1010.2 |
| 20260508224930 | 58 | 142 | 0.0 | 1.0 | 0.00 | 0.00 | 0.00 | 83 | 1010.1 |
| 20260508224427 | 58 | 109 | 1.0 | 2.0 | 0.00 | 0.00 | 0.00 | 82 | 1010.1 |
| 20260508223924 | 59 | 115 | 0.0 | 2.0 | 0.00 | 0.00 | 0.00 | 82 | 1010.3 |
| 20260508223422 | 59 | 89 | 0.0 | 1.0 | 0.00 | 0.00 | 0.00 | 82 | 1010.2 |
| 20260508222919 | 59 | 113 | 0.0 | 0.0 | 0.00 | 0.00 | 0.00 | 80 | 1010.0 |
| 20260508222417 | 59 | 103 | 0.0 | 1.0 | 0.00 | 0.00 | 0.00 | 79 | 1010.1 |
| 20260508221913 | 60 | 127 | 0.0 | 1.0 | 0.00 | 0.00 | 0.00 | 78 | 1010.1 |
| 20260508221408 | 60 | 129 | 0.0 | 1.0 | 0.00 | 0.00 | 0.00 | 76 | 1010.0 |
| 20260508220905 | 60 | 100 | 2.0 | 2.0 | 0.00 | 0.00 | 0.00 | 73 | 1009.9 |
| 20260508220402 | 61 | 129 | 0.0 | 0.0 | 0.00 | 0.00 | 0.00 | 74 | 1009.9 |
| 20260508215858 | 61 | 111 | 0.0 | 2.0 | 0.00 | 0.00 | 0.00 | 73 | 1009.9 |
| 20260508215355 | 62 | 124 | 0.0 | 1.0 | 0.00 | 0.00 | 0.00 | 75 | 1010.0 |
| 20260508214852 | 62 | 142 | 0.0 | 0.0 | 0.00 | 0.00 | 0.00 | 74 | 1010.1 |
| 20260508214349 | 62 | 129 | 0.0 | 0.0 | 0.00 | 0.00 | 0.00 | 68 | 1010.1 |
| 20260508213845 | 62 | 142 | 0.0 | 1.0 | 0.00 | 0.00 | 0.00 | 67 | 1010.0 |
| 20260508213343 | 62 | 124 | 0.0 | 0.0 | 0.00 | 0.00 | 0.00 | 64 | 1010.1 |
| 20260508212838 | 63 | 135 | 0.0 | 1.0 | 0.00 | 0.00 | 0.00 | 63 | 1010.1 |
| 20260508212335 | 63 | 218 | 0.0 | 1.0 | 0.00 | 0.00 | 0.00 | 61 | 1010.3 |
| 20260508211831 | 63 | 309 | 0.0 | 0.0 | 0.00 | 0.00 | 0.00 | 60 | 1010.4 |
| 20260508211327 | 64 | 154 | 0.0 | 1.0 | 0.00 | 0.00 | 0.00 | 55 | 1010.1 |
| 20260508210825 | 64 | 171 | 0.0 | 2.0 | 0.00 | 0.00 | 0.00 | 53 | 1010.1 |
| 20260508210321 | 64 | 176 | 0.0 | 1.0 | 0.00 | 0.00 | 0.00 | 54 | 1010.1 |
| 20260508205818 | 64 | 119 | 0.0 | 3.0 | 0.00 | 0.00 | 0.00 | 54 | 1010.3 |
| 20260508205314 | 64 | 212 | 0.0 | 2.0 | 0.00 | 0.00 | 0.00 | 54 | 1010.2 |
| 20260508204811 | 64 | 154 | 0.0 | 2.0 | 0.00 | 0.00 | 0.00 | 55 | 1010.2 |
| 20260508204308 | 64 | 196 | 2.0 | 2.0 | 0.00 | 0.00 | 0.00 | 50 | 1010.4 |
| 20260508203804 | 64 | 224 | 0.0 | 2.0 | 0.00 | 0.00 | 0.00 | 54 | 1010.5 |
| 20260508203300 | 64 | 161 | 1.0 | 3.0 | 0.00 | 0.00 | 0.00 | 49 | 1010.7 |
| 20260508202755 | 64 | 167 | 0.0 | 3.0 | 0.00 | 0.00 | 0.00 | 49 | 1010.7 |
| 20260508202253 | 64 | 210 | 0.0 | 2.0 | 0.00 | 0.00 | 0.00 | 49 | 1010.9 |
| 20260508201750 | 65 | 203 | 0.0 | 2.0 | 0.00 | 0.00 | 0.00 | 52 | 1011.0 |
| 20260508201247 | 65 | 172 | 2.0 | 2.0 | 0.00 | 0.00 | 0.00 | 50 | 1011.0 |
| 20260508200743 | 65 | 116 | 0.0 | 2.0 | 0.00 | 0.00 | 0.00 | 52 | 1011.0 |
| 20260508200240 | 65 | 219 | 2.0 | 2.0 | 0.00 | 0.00 | 0.00 | 53 | 1011.0 |
| 20260508195736 | 65 | 175 | 2.0 | 2.0 | 0.00 | 0.00 | 0.00 | 52 | 1011.2 |
| 20260508195232 | 65 | 269 | 0.0 | 2.0 | 0.00 | 0.00 | 0.00 | 50 | 1011.4 |
| 20260508194729 | 65 | 185 | 0.0 | 2.0 | 0.00 | 0.00 | 0.00 | 49 | 1011.4 |
| 20260508194226 | 66 | 169 | 1.0 | 2.0 | 0.00 | 0.00 | 0.00 | 52 | 1011.4 |
| 20260508193723 | 65 | 192 | 1.0 | 3.0 | 0.00 | 0.00 | 0.00 | 46 | 1011.3 |
| 20260508193220 | 65 | 58 | 0.0 | 2.0 | 0.00 | 0.00 | 0.00 | 53 | 1011.5 |
| 20260508192716 | 65 | 294 | 2.0 | 3.0 | 0.00 | 0.00 | 0.00 | 49 | 1011.3 |
| 20260508192213 | 66 | 217 | 2.0 | 2.0 | 0.00 | 0.00 | 0.00 | 52 | 1011.4 |
| 20260508191711 | 66 | 155 | 0.0 | 1.0 | 0.00 | 0.00 | 0.00 | 50 | 1011.5 |
| 20260508191207 | 66 | 181 | 2.0 | 2.0 | 0.00 | 0.00 | 0.00 | 48 | 1011.4 |
| 20260508190705 | 66 | 116 | 0.0 | 3.0 | 0.00 | 0.00 | 0.00 | 50 | 1011.5 |
| 20260508190201 | 66 | 160 | 0.0 | 3.0 | 0.00 | 0.00 | 0.00 | 46 | 1011.6 |
| 20260508185658 | 66 | 167 | 2.0 | 2.0 | 0.00 | 0.00 | 0.00 | 47 | 1011.7 |
| 20260508185155 | 67 | 132 | 0.0 | 5.0 | 0.00 | 0.00 | 0.00 | 48 | 1011.8 |
| 20260508184652 | 68 | 301 | 3.0 | 6.0 | 0.00 | 0.00 | 0.00 | 50 | 1011.9 |
| 20260508184149 | 68 | 177 | 2.0 | 4.0 | 0.00 | 0.00 | 0.00 | 47 | 1011.8 |
| 20260508183646 | 68 | 192 | 3.0 | 3.0 | 0.00 | 0.00 | 0.00 | 47 | 1011.9 |
| 20260508183142 | 68 | 303 | 2.0 | 4.0 | 0.00 | 0.00 | 0.00 | 46 | 1012.1 |
| 20260508182638 | 66 | 220 | 2.0 | 3.0 | 0.00 | 0.00 | 0.00 | 46 | 1012.0 |
| 20260508182135 | 66 | 173 | 0.0 | 5.0 | 0.00 | 0.00 | 0.00 | 50 | 1012.1 |
| 20260508181630 | 66 | 184 | 2.0 | 5.0 | 0.00 | 0.00 | 0.00 | 46 | 1012.1 |
| 20260508181128 | 67 | 167 | 0.0 | 4.0 | 0.00 | 0.00 | 0.00 | 47 | 1012.3 |
| 20260508180625 | 67 | 257 | 4.0 | 7.0 | 0.00 | 0.00 | 0.00 | 48 | 1012.3 |
| 20260508180121 | 66 | 161 | 2.0 | 5.0 | 0.00 | 0.00 | 0.00 | 48 | 1012.4 |
| 20260508175618 | 66 | 269 | 0.0 | 4.0 | 0.00 | 0.00 | 0.00 | 49 | 1012.5 |
| 20260508175115 | 65 | 198 | 2.0 | 4.0 | 0.00 | 0.00 | 0.00 | 50 | 1012.6 |
| 20260508174612 | 64 | 274 | 3.0 | 6.0 | 0.00 | 0.00 | 0.00 | 53 | 1013.0 |
| 20260508174109 | 64 | 222 | 3.0 | 4.0 | 0.00 | 0.00 | 0.00 | 50 | 1013.0 |
| 20260508173606 | 64 | 299 | 2.0 | 3.0 | 0.00 | 0.00 | 0.00 | 51 | 1013.0 |
| 20260508173102 | 64 | 310 | 0.0 | 5.0 | 0.00 | 0.00 | 0.00 | 52 | 1013.1 |
| 20260508172600 | 64 | 175 | 2.0 | 4.0 | 0.00 | 0.00 | 0.00 | 52 | 1013.1 |
| 20260508172056 | 64 | 50 | 0.0 | 2.0 | 0.00 | 0.00 | 0.00 | 52 | 1013.0 |
| 20260508171552 | 65 | 192 | 2.0 | 4.0 | 0.00 | 0.00 | 0.00 | 54 | 1013.1 |
| 20260508171049 | 64 | 320 | 3.0 | 3.0 | 0.00 | 0.00 | 0.00 | 54 | 1013.2 |
| 20260508170546 | 63 | 170 | 2.0 | 3.0 | 0.00 | 0.00 | 0.00 | 52 | 1013.4 |
| 20260508170043 | 63 | 246 | 2.0 | 4.0 | 0.00 | 0.00 | 0.00 | 51 | 1013.6 |
| 20260508165541 | 64 | 322 | 3.0 | 4.0 | 0.00 | 0.00 | 0.00 | 55 | 1013.7 |
| 20260508165038 | 64 | 328 | 2.0 | 3.0 | 0.00 | 0.00 | 0.00 | 56 | 1013.7 |
| 20260508164534 | 64 | 212 | 1.0 | 3.0 | 0.00 | 0.00 | 0.00 | 55 | 1013.6 |
| 20260508164031 | 65 | 202 | 2.0 | 3.0 | 0.00 | 0.00 | 0.00 | 48 | 1013.6 |
| 20260508163528 | 66 | 289 | 1.0 | 3.0 | 0.00 | 0.00 | 0.00 | 47 | 1013.8 |
| 20260508163025 | 66 | 266 | 2.0 | 3.0 | 0.00 | 0.00 | 0.00 | 48 | 1013.9 |
| 20260508162522 | 66 | 338 | 2.0 | 6.0 | 0.00 | 0.00 | 0.00 | 48 | 1013.8 |
| 20260508162019 | 67 | 258 | 2.0 | 5.0 | 0.00 | 0.00 | 0.00 | 46 | 1014.0 |
| 20260508161516 | 67 | 305 | 3.0 | 4.0 | 0.00 | 0.00 | 0.00 | 47 | 1014.1 |
| 20260508161013 | 68 | 85 | 1.0 | 4.0 | 0.00 | 0.00 | 0.00 | 47 | 1013.9 |
| 20260508160512 | 67 | 108 | 3.0 | 5.0 | 0.00 | 0.00 | 0.00 | 48 | 1014.2 |
| 20260508160008 | 66 | 184 | 1.0 | 6.0 | 0.00 | 0.00 | 0.00 | 50 | 1014.1 |
| 20260508155505 | 65 | 323 | 1.0 | 8.0 | 0.00 | 0.00 | 0.00 | 48 | 1014.1 |
| 20260508155001 | 65 | 102 | 2.0 | 6.0 | 0.00 | 0.00 | 0.00 | 49 | 1014.2 |
| 20260508154459 | 64 | 240 | 2.0 | 5.0 | 0.00 | 0.00 | 0.00 | 49 | 1014.4 |
| 20260508153955 | 65 | 257 | 1.0 | 4.0 | 0.00 | 0.00 | 0.00 | 48 | 1014.1 |
| 20260508153453 | 65 | 164 | 3.0 | 4.0 | 0.00 | 0.00 | 0.00 | 49 | 1014.3 |
| 20260508152949 | 64 | 258 | 2.0 | 6.0 | 0.00 | 0.00 | 0.00 | 49 | 1014.1 |
| 20260508152446 | 64 | 296 | 2.0 | 6.0 | 0.00 | 0.00 | 0.00 | 48 | 1014.2 |
| 20260508151942 | 66 | 234 | 2.0 | 3.0 | 0.00 | 0.00 | 0.00 | 47 | 1014.2 |
| 20260508151439 | 65 | 152 | 3.0 | 5.0 | 0.00 | 0.00 | 0.00 | 46 | 1014.3 |
| 20260508150935 | 66 | 180 | 2.0 | 3.0 | 0.00 | 0.00 | 0.00 | 46 | 1014.3 |
| 20260508150432 | 65 | 207 | 3.0 | 5.0 | 0.00 | 0.00 | 0.00 | 48 | 1014.4 |
| 20260508145928 | 64 | 195 | 2.0 | 5.0 | 0.00 | 0.00 | 0.00 | 47 | 1014.3 |
| 20260508145425 | 64 | 137 | 0.0 | 4.0 | 0.00 | 0.00 | 0.00 | 46 | 1014.2 |
| 20260508144921 | 64 | 136 | 2.0 | 5.0 | 0.00 | 0.00 | 0.00 | 49 | 1014.4 |
| 20260508144419 | 65 | 283 | 2.0 | 4.0 | 0.00 | 0.00 | 0.00 | 46 | 1014.4 |
| 20260508143916 | 64 | 130 | 2.0 | 4.0 | 0.00 | 0.00 | 0.00 | 49 | 1014.3 |
| 20260508143414 | 63 | 267 | 3.0 | 5.0 | 0.00 | 0.00 | 0.00 | 47 | 1014.4 |
| 20260508142910 | 63 | 285 | 2.0 | 4.0 | 0.00 | 0.00 | 0.00 | 50 | 1014.6 |
| 20260508142407 | 64 | 100 | 1.0 | 4.0 | 0.00 | 0.00 | 0.00 | 49 | 1014.5 |
| 20260508141903 | 64 | 144 | 0.0 | 2.0 | 0.00 | 0.00 | 0.00 | 52 | 1014.5 |
| 20260508141400 | 63 | 264 | 2.0 | 4.0 | 0.00 | 0.00 | 0.00 | 48 | 1014.5 |
| 20260508140858 | 63 | 279 | 1.0 | 4.0 | 0.00 | 0.00 | 0.00 | 49 | 1014.6 |
| 20260508140355 | 62 | 161 | 1.0 | 7.0 | 0.00 | 0.00 | 0.00 | 48 | 1014.7 |
| 20260508135850 | 63 | 46 | 2.0 | 4.0 | 0.00 | 0.00 | 0.00 | 47 | 1014.8 |
| 20260508135347 | 62 | 180 | 1.0 | 4.0 | 0.00 | 0.00 | 0.00 | 54 | 1014.7 |
| 20260508134843 | 62 | 329 | 6.0 | 6.0 | 0.00 | 0.00 | 0.00 | 52 | 1014.9 |
| 20260508134340 | 61 | 194 | 2.0 | 3.0 | 0.00 | 0.00 | 0.00 | 53 | 1014.8 |
| 20260508133836 | 60 | 225 | 1.0 | 3.0 | 0.00 | 0.00 | 0.00 | 51 | 1014.7 |
| 20260508133335 | 60 | 224 | 0.0 | 4.0 | 0.00 | 0.00 | 0.00 | 52 | 1015.1 |
| 20260508132831 | 61 | 166 | 2.0 | 3.0 | 0.00 | 0.00 | 0.00 | 54 | 1014.7 |
| 20260508132329 | 60 | 246 | 2.0 | 4.0 | 0.00 | 0.00 | 0.00 | 53 | 1014.8 |
| 20260508131826 | 60 | 102 | 2.0 | 6.0 | 0.00 | 0.00 | 0.00 | 51 | 1015.0 |
| 20260508131321 | 59 | 310 | 0.0 | 4.0 | 0.00 | 0.00 | 0.00 | 52 | 1014.9 |
| 20260508130818 | 59 | 12 | 2.0 | 3.0 | 0.00 | 0.00 | 0.00 | 58 | 1014.9 |
| 20260508130315 | 59 | 163 | 2.0 | 4.0 | 0.00 | 0.00 | 0.00 | 51 | 1014.7 |
| 20260508125811 | 58 | 154 | 1.0 | 3.0 | 0.00 | 0.00 | 0.00 | 54 | 1014.8 |
| 20260508125308 | 57 | 164 | 0.0 | 3.0 | 0.00 | 0.00 | 0.00 | 57 | 1014.8 |
| 20260508124806 | 57 | 11 | 2.0 | 4.0 | 0.00 | 0.00 | 0.00 | 53 | 1014.9 |
| 20260508124302 | 57 | 226 | 0.0 | 4.0 | 0.00 | 0.00 | 0.00 | 54 | 1014.8 |
| 20260508123801 | 57 | 147 | 3.0 | 4.0 | 0.00 | 0.00 | 0.00 | 53 | 1014.6 |
| 20260508123258 | 57 | 72 | 1.0 | 3.0 | 0.00 | 0.00 | 0.00 | 58 | 1014.9 |
| 20260508122754 | 56 | 103 | 2.0 | 2.0 | 0.00 | 0.00 | 0.00 | 58 | 1014.7 |
| 20260508122251 | 55 | 216 | 0.0 | 2.0 | 0.00 | 0.00 | 0.00 | 63 | 1014.8 |
| 20260508121749 | 54 | 181 | 3.0 | 3.0 | 0.00 | 0.00 | 0.00 | 65 | 1014.7 |
| 20260508121247 | 55 | 35 | 0.0 | 2.0 | 0.00 | 0.00 | 0.00 | 63 | 1014.9 |
| 20260508120744 | 52 | 166 | 0.0 | 2.0 | 0.00 | 0.00 | 0.00 | 67 | 1014.9 |
| 20260508120242 | 52 | 144 | 0.0 | 2.0 | 0.00 | 0.00 | 0.00 | 62 | 1014.8 |
| 20260508115739 | 55 | 178 | 1.0 | 2.0 | 0.00 | 0.00 | 0.00 | 61 | 1014.9 |
| 20260508115237 | 53 | 250 | 0.0 | 2.0 | 0.00 | 0.00 | 0.00 | 68 | 1014.9 |
| 20260508114733 | 51 | 165 | 1.0 | 2.0 | 0.00 | 0.00 | 0.00 | 68 | 1014.6 |
| 20260508114230 | 49 | 278 | 0.0 | 2.0 | 0.00 | 0.00 | 0.00 | 75 | 1014.6 |
| 20260508113726 | 48 | 230 | 0.0 | 2.0 | 0.00 | 0.00 | 0.00 | 72 | 1014.7 |
| 20260508113225 | 48 | 128 | 2.0 | 2.0 | 0.00 | 0.00 | 0.00 | 74 | 1014.6 |
| 20260508112720 | 48 | 134 | 1.0 | 2.0 | 0.00 | 0.00 | 0.00 | 73 | 1014.4 |
| 20260508112218 | 47 | 78 | 1.0 | 2.0 | 0.00 | 0.00 | 0.00 | 71 | 1014.2 |
| 20260508111715 | 47 | 95 | 0.0 | 2.0 | 0.00 | 0.00 | 0.00 | 71 | 1014.3 |
| 20260508111212 | 47 | 103 | 0.0 | 2.0 | 0.00 | 0.00 | 0.00 | 74 | 1014.4 |
| 20260508110709 | 47 | 89 | 0.0 | 2.0 | 0.00 | 0.00 | 0.00 | 72 | 1014.3 |
| 20260508110206 | 48 | 280 | 0.0 | 2.0 | 0.00 | 0.00 | 0.00 | 71 | 1014.2 |
| 20260508105706 | 48 | 132 | 1.0 | 1.0 | 0.00 | 0.00 | 0.00 | 73 | 1014.4 |
| 20260508105203 | 48 | 125 | 0.0 | 3.0 | 0.00 | 0.00 | 0.00 | 70 | 1014.3 |
| 20260508104701 | 48 | 84 | 0.0 | 2.0 | 0.00 | 0.00 | 0.00 | 73 | 1014.1 |
| 20260508104157 | 48 | 233 | 0.0 | 1.0 | 0.00 | 0.00 | 0.00 | 74 | 1014.2 |
| 20260508103654 | 47 | 89 | 0.0 | 1.0 | 0.00 | 0.00 | 0.00 | 73 | 1014.3 |
| 20260508103152 | 47 | 89 | 0.0 | 2.0 | 0.00 | 0.00 | 0.00 | 73 | 1014.2 |
| 20260508102649 | 47 | 131 | 1.0 | 2.0 | 0.00 | 0.00 | 0.00 | 76 | 1014.3 |
| 20260508102147 | 47 | 137 | 0.0 | 1.0 | 0.00 | 0.00 | 0.00 | 76 | 1014.2 |
| 20260508101643 | 47 | 141 | 0.0 | 2.0 | 0.00 | 0.00 | 0.00 | 79 | 1014.3 |
| 20260508101141 | 47 | 119 | 0.0 | 2.0 | 0.00 | 0.00 | 0.00 | 75 | 1014.3 |
| 20260508100638 | 46 | 62 | 0.0 | 1.0 | 0.00 | 0.00 | 0.00 | 80 | 1014.1 |
| 20260508100137 | 46 | 110 | 0.0 | 2.0 | 0.00 | 0.00 | 0.00 | 78 | 1014.3 |
| 20260508095633 | 46 | 17 | 0.0 | 0.0 | 0.00 | 0.00 | 0.00 | 79 | 1014.4 |
| 20260508095130 | 46 | 116 | 0.0 | 1.0 | 0.00 | 0.00 | 0.00 | 80 | 1014.4 |
| 20260508094627 | 46 | 107 | 0.0 | 1.0 | 0.00 | 0.00 | 0.00 | 79 | 1014.4 |
| 20260508094123 | 46 | 102 | 0.0 | 0.0 | 0.00 | 0.00 | 0.00 | 81 | 1014.3 |
| 20260508093621 | 46 | 124 | 0.0 | 0.0 | 0.00 | 0.00 | 0.00 | 80 | 1014.2 |
| 20260508093119 | 46 | 103 | 0.0 | 0.0 | 0.00 | 0.00 | 0.00 | 80 | 1014.4 |
| 20260508092615 | 46 | 113 | 0.0 | 0.0 | 0.00 | 0.00 | 0.00 | 84 | 1014.4 |
| 20260508092114 | 45 | 157 | 0.0 | 1.0 | 0.00 | 0.00 | 0.00 | 82 | 1014.3 |
| 20260508091611 | 45 | 130 | 0.0 | 2.0 | 0.00 | 0.00 | 0.00 | 82 | 1014.3 |
| 20260508091108 | 45 | 160 | 0.0 | 1.0 | 0.00 | 0.00 | 0.00 | 85 | 1014.5 |
| 20260508090606 | 46 | 150 | 0.0 | 1.0 | 0.00 | 0.00 | 0.00 | 89 | 1014.3 |
| 20260508085559 | 45 | 180 | 0.0 | 0.0 | 0.00 | 0.00 | 0.00 | 87 | 1014.5 |
| 20260508085056 | 45 | 246 | 0.0 | 0.0 | 0.00 | 0.00 | 0.00 | 85 | 1014.5 |
| 20260508084552 | 45 | 173 | 0.0 | 0.0 | 0.00 | 0.00 | 0.00 | 91 | 1014.4 |
| 20260508084050 | 45 | 165 | 0.0 | 0.0 | 0.00 | 0.00 | 0.00 | 88 | 1014.5 |
| 20260508083547 | 45 | 136 | 0.0 | 1.0 | 0.00 | 0.00 | 0.00 | 91 | 1014.4 |
| 20260508083044 | 46 | 122 | 0.0 | 0.0 | 0.00 | 0.00 | 0.00 | 92 | 1014.3 |
| 20260508082540 | 46 | 157 | 0.0 | 0.0 | 0.00 | 0.00 | 0.00 | 92 | 1014.5 |
| 20260508082037 | 46 | 269 | 0.0 | 0.0 | 0.00 | 0.00 | 0.00 | 90 | 1014.6 |
| 20260508081535 | 46 | 135 | 0.0 | 0.0 | 0.02 | 0.00 | 0.00 | 88 | 1014.4 |
| 20260508081030 | 46 | 180 | 0.0 | 2.0 | 0.02 | 0.00 | 0.00 | 88 | 1014.4 |
| 20260508080529 | 46 | 173 | 0.0 | 1.0 | 0.00 | 0.00 | 0.00 | 87 | 1014.5 |
| 20260508080026 | 46 | 91 | 0.0 | 2.0 | 0.00 | 0.00 | 0.00 | 83 | 1014.6 |
| 20260508075522 | 46 | 53 | 1.0 | 2.0 | 0.00 | 0.00 | 0.00 | 81 | 1014.9 |
| 20260508075020 | 46 | 20 | 1.0 | 2.0 | 0.00 | 0.00 | 0.00 | 77 | 1014.6 |
| 20260508074517 | 46 | 44 | 0.0 | 0.0 | 0.00 | 0.00 | 0.00 | 76 | 1014.5 |
| 20260508074014 | 46 | 38 | 0.0 | 2.0 | 0.00 | 0.00 | 0.00 | 75 | 1014.5 |
| 20260508073511 | 46 | 32 | 0.0 | 0.0 | 0.00 | 0.00 | 0.00 | 70 | 1014.2 |
| 20260508073009 | 46 | 119 | 0.0 | 1.0 | 0.00 | 0.00 | 0.00 | 69 | 1014.3 |
| 20260508072504 | 47 | 147 | 0.0 | 0.0 | 0.00 | 0.00 | 0.00 | 69 | 1014.2 |
| 20260508072002 | 47 | 180 | 0.0 | 2.0 | 0.00 | 0.00 | 0.00 | 68 | 1014.2 |
| 20260508071459 | 47 | 15 | 0.0 | 0.0 | 0.00 | 0.00 | 0.00 | 69 | 1014.3 |
| 20260508070957 | 47 | 235 | 0.0 | 1.0 | 0.00 | 0.00 | 0.00 | 71 | 1014.4 |
| 20260508070454 | 47 | 116 | 0.0 | 2.0 | 0.00 | 0.00 | 0.00 | 69 | 1014.4 |
| 20260508065952 | 46 | 113 | 0.0 | 1.0 | 0.00 | 0.00 | 0.00 | 70 | 1014.6 |
| 20260508065450 | 46 | 106 | 0.0 | 1.0 | 0.00 | 0.00 | 0.00 | 71 | 1014.5 |
| 20260508064948 | 46 | 89 | 0.0 | 2.0 | 0.00 | 0.00 | 0.00 | 71 | 1014.6 |
| 20260508064445 | 46 | 89 | 0.0 | 1.0 | 0.00 | 0.00 | 0.00 | 71 | 1014.5 |
| 20260508063943 | 46 | 147 | 0.0 | 2.0 | 0.00 | 0.00 | 0.00 | 71 | 1014.7 |
| 20260508063440 | 46 | 116 | 0.0 | 1.0 | 0.00 | 0.00 | 0.00 | 74 | 1014.6 |
| 20260508062938 | 46 | 55 | 0.0 | 1.0 | 0.00 | 0.00 | 0.00 | 74 | 1014.7 |
| 20260508062435 | 46 | 124 | 0.0 | 1.0 | 0.00 | 0.00 | 0.00 | 71 | 1014.5 |
| 20260508061932 | 46 | 75 | 0.0 | 1.0 | 0.00 | 0.00 | 0.00 | 71 | 1014.7 |
| 20260508061430 | 46 | 112 | 1.0 | 2.0 | 0.00 | 0.00 | 0.00 | 73 | 1014.7 |
| 20260508060925 | 45 | 138 | 0.0 | 2.0 | 0.00 | 0.00 | 0.00 | 75 | 1014.8 |
| 20260508060423 | 45 | 124 | 0.0 | 1.0 | 0.00 | 0.00 | 0.00 | 78 | 1014.9 |
| 20260508055919 | 46 | 166 | 0.0 | 0.0 | 0.00 | 0.00 | 0.00 | 72 | 1014.8 |
| 20260508055416 | 45 | 127 | 0.0 | 1.0 | 0.00 | 0.00 | 0.00 | 73 | 1015.0 |
| 20260508054912 | 46 | 143 | 1.0 | 1.0 | 0.00 | 0.00 | 0.00 | 77 | 1015.0 |
| 20260508054410 | 45 | 120 | 0.0 | 1.0 | 0.00 | 0.00 | 0.00 | 71 | 1014.9 |
| 20260508053907 | 46 | 157 | 0.0 | 0.0 | 0.00 | 0.00 | 0.00 | 75 | 1014.7 |
| 20260508053404 | 46 | 124 | 0.0 | 2.0 | 0.00 | 0.00 | 0.00 | 75 | 1014.9 |
| 20260508052901 | 46 | 110 | 0.0 | 0.0 | 0.00 | 0.00 | 0.00 | 73 | 1014.9 |
| 20260508052359 | 46 | 135 | 0.0 | 0.0 | 0.00 | 0.00 | 0.00 | 73 | 1014.9 |
| 20260508051854 | 46 | 110 | 0.0 | 0.0 | 0.00 | 0.00 | 0.00 | 69 | 1014.9 |
| 20260508051350 | 47 | 103 | 0.0 | 1.0 | 0.00 | 0.00 | 0.00 | 67 | 1014.8 |
| 20260508050847 | 47 | 116 | 0.0 | 1.0 | 0.00 | 0.00 | 0.00 | 67 | 1014.8 |
| 20260508050344 | 47 | 147 | 0.0 | 1.0 | 0.00 | 0.00 | 0.00 | 67 | 1015.0 |
| 20260508045839 | 47 | 159 | 0.0 | 2.0 | 0.00 | 0.00 | 0.00 | 65 | 1014.9 |
| 20260508045337 | 47 | 105 | 0.0 | 0.0 | 0.00 | 0.00 | 0.00 | 65 | 1015.0 |
| 20260508044835 | 47 | 147 | 0.0 | 1.0 | 0.00 | 0.00 | 0.00 | 64 | 1015.0 |
| 20260508044331 | 47 | 150 | 0.0 | 1.0 | 0.00 | 0.00 | 0.00 | 65 | 1015.0 |
| 20260508043827 | 48 | 60 | 0.0 | 1.0 | 0.00 | 0.00 | 0.00 | 64 | 1014.8 |
| 20260508043325 | 48 | 128 | 1.0 | 2.0 | 0.00 | 0.00 | 0.00 | 65 | 1014.9 |
| 20260508042821 | 47 | 128 | 1.0 | 2.0 | 0.00 | 0.00 | 0.00 | 66 | 1014.8 |
| 20260508042319 | 47 | 134 | 1.0 | 2.0 | 0.00 | 0.00 | 0.00 | 66 | 1014.8 |
| 20260508041815 | 47 | 118 | 1.0 | 2.0 | 0.00 | 0.00 | 0.00 | 67 | 1015.0 |
| 20260508041312 | 47 | 102 | 0.0 | 1.0 | 0.00 | 0.00 | 0.00 | 66 | 1014.9 |
| 20260508040808 | 47 | 113 | 0.0 | 1.0 | 0.00 | 0.00 | 0.00 | 69 | 1014.8 |
| 20260508040306 | 47 | 68 | 0.0 | 1.0 | 0.00 | 0.00 | 0.00 | 67 | 1014.8 |
| 20260508035803 | 47 | 128 | 1.0 | 1.0 | 0.00 | 0.00 | 0.00 | 67 | 1014.7 |
| 20260508035300 | 47 | 131 | 0.0 | 1.0 | 0.00 | 0.00 | 0.00 | 68 | 1014.8 |
| 20260508034757 | 47 | 130 | 0.0 | 1.0 | 0.00 | 0.00 | 0.00 | 67 | 1015.0 |
| 20260508034254 | 47 | 128 | 1.0 | 1.0 | 0.00 | 0.00 | 0.00 | 67 | 1014.9 |